createdAt,value
2023-05-19T00:01:43.753Z,14.01
2023-05-19T00:03:52.475Z,14.01
2023-05-19T00:05:56.956Z,14.01
2023-05-19T00:08:00.908Z,14.03
2023-05-19T00:10:04.359Z,13.94
2023-05-19T00:12:08.236Z,13.90
2023-05-19T00:14:11.936Z,13.96
2023-05-19T00:16:16.957Z,13.85
2023-05-19T00:18:20.620Z,13.81
2023-05-19T00:20:23.694Z,13.85
2023-05-19T00:22:26.511Z,13.87
2023-05-19T00:24:29.790Z,13.89
2023-05-19T00:26:32.580Z,13.83
2023-05-19T00:28:40.149Z,13.81
2023-05-19T00:30:42.978Z,13.82
2023-05-19T00:32:47.150Z,13.79
2023-05-19T00:34:49.992Z,13.83
2023-05-19T00:36:53.232Z,13.82
2023-05-19T00:38:56.198Z,13.75
2023-05-19T00:40:59.216Z,13.77
2023-05-19T00:43:02.117Z,13.78
2023-05-19T00:45:05.525Z,13.70
2023-05-19T00:47:09.782Z,13.72
2023-05-19T00:49:13.963Z,13.58
2023-05-19T00:51:17.899Z,13.56
2023-05-19T00:53:21.494Z,13.51
2023-05-19T00:55:28.997Z,13.48
2023-05-19T00:57:31.811Z,13.52
2023-05-19T00:59:34.861Z,13.50
2023-05-19T01:01:38.096Z,13.47
2023-05-19T01:03:42.894Z,13.46
2023-05-19T01:05:47.512Z,13.44
2023-05-19T01:07:53.397Z,13.44
2023-05-19T01:09:57.152Z,13.37
2023-05-19T01:12:00.636Z,13.33
2023-05-19T01:14:03.767Z,13.28
2023-05-19T01:16:13.443Z,13.27
2023-05-19T01:18:26.002Z,13.20
2023-05-19T01:20:39.888Z,13.07
2023-05-19T01:23:17.686Z,12.99
2023-05-19T01:25:49.083Z,13.02
2023-05-19T01:28:17.780Z,12.95
2023-05-19T01:30:28.208Z,12.94
2023-05-19T01:32:32.450Z,12.93
2023-05-19T01:34:39.593Z,12.91
2023-05-19T01:36:44.825Z,12.88
2023-05-19T01:38:52.116Z,12.83
2023-05-19T01:40:56.055Z,12.77
2023-05-19T01:43:00.698Z,12.75
2023-05-19T01:45:06.047Z,12.75
2023-05-19T01:47:10.952Z,12.71
2023-05-19T01:49:14.648Z,12.65
2023-05-19T01:51:17.566Z,12.64
2023-05-19T01:53:20.409Z,12.54
2023-05-19T01:55:23.964Z,12.64
2023-05-19T01:57:37.130Z,12.60
2023-05-19T01:59:53.067Z,12.48
2023-05-19T02:02:00.009Z,12.47
2023-05-19T02:04:19.199Z,12.49
2023-05-19T02:06:34.183Z,12.47
2023-05-19T02:08:44.369Z,12.40
2023-05-19T02:10:55.082Z,12.37
2023-05-19T02:13:01.778Z,12.32
2023-05-19T02:15:07.334Z,12.29
2023-05-19T02:17:12.494Z,12.36
2023-05-19T02:19:24.753Z,12.33
2023-05-19T02:21:27.708Z,12.27
2023-05-19T02:23:31.857Z,12.23
2023-05-19T02:25:35.005Z,12.20
2023-05-19T02:27:38.708Z,12.19
2023-05-19T02:29:41.993Z,12.29
2023-05-19T02:31:44.881Z,12.24
2023-05-19T02:33:47.759Z,12.16
2023-05-19T02:35:51.963Z,12.16
2023-05-19T02:37:55.049Z,12.13
2023-05-19T02:39:57.960Z,12.08
2023-05-19T02:42:00.804Z,12.05
2023-05-19T02:44:03.885Z,12.02
2023-05-19T02:46:06.996Z,12.00
2023-05-19T02:48:09.937Z,12.03
2023-05-19T02:50:12.877Z,12.04
2023-05-19T02:52:17.377Z,11.94
2023-05-19T02:54:20.312Z,11.99
2023-05-19T02:56:23.390Z,11.89
2023-05-19T02:58:26.212Z,11.90
2023-05-19T03:00:29.322Z,11.88
2023-05-19T03:02:33.299Z,11.90
2023-05-19T03:04:41.511Z,11.82
2023-05-19T03:06:45.219Z,11.77
2023-05-19T03:08:49.619Z,11.68
2023-05-19T03:10:52.434Z,11.73
2023-05-19T03:12:55.374Z,11.65
2023-05-19T03:14:58.217Z,11.61
2023-05-19T03:17:01.748Z,11.57
2023-05-19T03:19:05.206Z,11.52
2023-05-19T03:21:08.155Z,11.52
2023-05-19T03:23:11.050Z,11.45
2023-05-19T03:25:15.448Z,11.49
2023-05-19T03:27:18.400Z,11.47
2023-05-19T03:29:21.476Z,11.52
2023-05-19T03:31:24.533Z,11.59
2023-05-19T03:33:29.748Z,11.44
2023-05-19T03:35:32.974Z,11.40
2023-05-19T03:37:35.866Z,11.40
2023-05-19T03:39:39.065Z,11.41
2023-05-19T03:41:43.348Z,11.44
2023-05-19T03:43:46.585Z,11.38
2023-05-19T03:45:49.559Z,11.38
2023-05-19T03:48:11.340Z,11.25
2023-05-19T03:50:34.603Z,11.28
2023-05-19T03:52:48.917Z,11.27
2023-05-19T03:55:00.473Z,11.35
2023-05-19T03:57:05.147Z,11.37
2023-05-19T03:59:08.054Z,11.36
2023-05-19T04:01:12.513Z,11.43
2023-05-19T04:03:15.479Z,11.34
2023-05-19T04:05:18.545Z,11.34
2023-05-19T04:07:21.910Z,11.26
2023-05-19T04:09:24.940Z,11.30
2023-05-19T04:11:27.806Z,11.27
2023-05-19T04:13:34.023Z,11.24
2023-05-19T04:15:37.141Z,11.23
2023-05-19T04:17:40.635Z,11.18
2023-05-19T04:19:43.495Z,11.23
2023-05-19T04:21:46.945Z,11.20
2023-05-19T04:23:49.855Z,11.22
2023-05-19T04:25:54.249Z,11.20
2023-05-19T04:27:57.790Z,11.20
2023-05-19T04:30:04.008Z,11.18
2023-05-19T04:32:09.102Z,11.22
2023-05-19T04:34:12.198Z,11.23
2023-05-19T04:36:17.418Z,11.23
2023-05-19T04:38:22.193Z,11.26
2023-05-19T04:40:25.525Z,11.21
2023-05-19T04:42:32.988Z,11.33
2023-05-19T04:44:38.031Z,11.32
2023-05-19T04:46:42.689Z,11.37
2023-05-19T04:48:45.916Z,11.36
2023-05-19T04:50:49.442Z,11.32
2023-05-19T04:52:52.320Z,11.31
2023-05-19T04:54:55.339Z,11.35
2023-05-19T04:57:02.697Z,11.35
2023-05-19T04:59:09.836Z,11.36
2023-05-19T05:01:15.996Z,11.42
2023-05-19T05:03:22.801Z,11.41
2023-05-19T05:05:25.807Z,11.40
2023-05-19T05:07:30.899Z,11.44
2023-05-19T05:09:35.809Z,11.43
2023-05-19T05:11:39.562Z,11.46
2023-05-19T05:13:43.158Z,11.50
2023-05-19T05:15:47.150Z,11.48
2023-05-19T05:17:50.734Z,11.59
2023-05-19T05:19:56.347Z,11.62
2023-05-19T05:21:59.758Z,11.61
2023-05-19T05:24:03.207Z,11.69
2023-05-19T05:26:17.163Z,11.73
2023-05-19T05:28:21.162Z,11.81
2023-05-19T05:30:24.116Z,11.93
2023-05-19T05:32:27.706Z,11.90
2023-05-19T05:34:31.952Z,11.90
2023-05-19T05:36:36.424Z,11.92
2023-05-19T05:38:39.310Z,12.01
2023-05-19T05:40:42.220Z,12.13
2023-05-19T05:42:45.925Z,12.07
2023-05-19T05:44:48.963Z,12.01
2023-05-19T05:46:53.290Z,12.27
2023-05-19T05:48:57.723Z,12.27
2023-05-19T05:51:01.178Z,12.22
2023-05-19T05:53:10.851Z,12.17
2023-05-19T05:55:17.491Z,12.21
2023-05-19T05:57:20.768Z,12.17
2023-05-19T05:59:23.684Z,12.25
2023-05-19T06:01:26.835Z,12.38
2023-05-19T06:03:29.958Z,12.46
2023-05-19T06:05:36.998Z,12.58
2023-05-19T06:07:39.935Z,12.70
2023-05-19T06:09:44.142Z,12.75
2023-05-19T06:11:46.989Z,12.92
2023-05-19T06:13:50.102Z,13.02
2023-05-19T06:16:10.747Z,13.08
2023-05-19T06:18:44.239Z,13.21
2023-05-19T06:20:47.250Z,13.34
2023-05-19T06:22:50.283Z,13.44
2023-05-19T06:24:57.264Z,13.55
2023-05-19T06:27:00.355Z,13.63
2023-05-19T06:29:03.363Z,13.85
2023-05-19T06:31:07.439Z,14.04
2023-05-19T06:33:31.391Z,13.91
2023-05-19T06:35:34.386Z,13.93
2023-05-19T06:37:38.516Z,14.05
2023-05-19T06:39:41.476Z,14.08
2023-05-19T06:41:46.128Z,14.12
2023-05-19T06:44:02.468Z,14.09
2023-05-19T06:46:09.213Z,14.31
2023-05-19T06:48:12.191Z,14.26
2023-05-19T06:50:15.515Z,14.24
2023-05-19T06:52:19.289Z,14.25
2023-05-19T06:54:22.692Z,14.45
2023-05-19T06:56:25.673Z,14.58
2023-05-19T06:58:29.921Z,14.74
2023-05-19T07:00:33.814Z,14.77
2023-05-19T07:02:37.718Z,14.89
2023-05-19T07:04:40.946Z,14.81
2023-05-19T07:06:43.941Z,14.87
2023-05-19T07:08:46.796Z,14.83
2023-05-19T07:10:50.177Z,14.82
2023-05-19T07:12:53.405Z,14.76
2023-05-19T07:15:00.633Z,14.92
2023-05-19T07:17:04.643Z,15.06
2023-05-19T07:19:08.795Z,15.12
2023-05-19T07:21:11.793Z,15.29
2023-05-19T07:23:17.147Z,15.38
2023-05-19T07:25:22.121Z,15.33
2023-05-19T07:27:25.089Z,15.44
2023-05-19T07:29:28.246Z,15.59
2023-05-19T07:31:32.527Z,15.66
2023-05-19T07:33:35.397Z,15.67
2023-05-19T07:35:38.432Z,15.70
2023-05-19T07:37:41.508Z,15.74
2023-05-19T07:39:44.381Z,15.73
2023-05-19T07:41:52.612Z,15.81
2023-05-19T07:43:55.488Z,15.81
2023-05-19T07:45:58.362Z,15.89
2023-05-19T07:48:02.658Z,16.07
2023-05-19T07:50:06.173Z,16.00
2023-05-19T07:52:09.213Z,16.21
2023-05-19T07:54:12.039Z,16.37
2023-05-19T07:56:14.993Z,16.32
2023-05-19T07:58:19.126Z,16.34
2023-05-19T08:00:22.695Z,16.40
2023-05-19T08:02:26.850Z,16.39
2023-05-19T08:04:31.292Z,16.51
2023-05-19T08:06:35.236Z,16.64
2023-05-19T08:08:38.262Z,16.67
2023-05-19T08:10:41.496Z,16.65
2023-05-19T08:12:44.976Z,16.68
2023-05-19T08:14:48.147Z,16.74
2023-05-19T08:16:51.698Z,16.94
2023-05-19T08:18:55.028Z,17.14
2023-05-19T08:20:59.750Z,17.15
2023-05-19T08:23:03.917Z,17.19
2023-05-19T08:25:07.497Z,17.22
2023-05-19T08:27:10.572Z,17.45
2023-05-19T08:29:13.514Z,17.47
2023-05-19T08:31:18.351Z,17.32
2023-05-19T08:33:21.754Z,17.50
2023-05-19T08:35:24.783Z,17.59
2023-05-19T08:37:29.001Z,17.50
2023-05-19T08:39:34.161Z,17.61
2023-05-19T08:41:37.086Z,17.52
2023-05-19T08:43:40.383Z,17.65
2023-05-19T08:45:44.945Z,17.59
2023-05-19T08:47:48.212Z,17.82
2023-05-19T08:49:54.256Z,17.85
2023-05-19T08:52:03.408Z,18.07
2023-05-19T08:54:15.686Z,18.17
2023-05-19T08:56:22.831Z,18.22
2023-05-19T08:58:28.811Z,18.34
2023-05-19T09:00:32.422Z,18.38
2023-05-19T09:02:37.044Z,18.48
2023-05-19T09:04:41.076Z,18.44
2023-05-19T09:06:45.393Z,18.50
2023-05-19T09:08:48.302Z,18.46
2023-05-19T09:10:52.503Z,18.67
2023-05-19T09:12:55.386Z,18.70
2023-05-19T09:14:58.419Z,18.76
2023-05-19T09:17:02.591Z,19.00
2023-05-19T09:19:07.266Z,19.01
2023-05-19T09:21:11.848Z,18.90
2023-05-19T09:23:15.807Z,18.96
2023-05-19T09:25:20.087Z,18.96
2023-05-19T09:27:24.538Z,18.97
2023-05-19T09:29:27.341Z,19.23
2023-05-19T09:31:33.907Z,19.14
2023-05-19T09:33:38.177Z,19.37
2023-05-19T09:35:41.277Z,19.37
2023-05-19T09:37:44.702Z,19.22
2023-05-19T09:39:49.257Z,19.02
2023-05-19T09:41:53.620Z,19.04
2023-05-19T09:43:57.855Z,18.89
2023-05-19T09:46:01.932Z,18.83
2023-05-19T09:48:05.681Z,18.62
2023-05-19T09:50:10.742Z,18.46
2023-05-19T09:52:18.593Z,18.37
2023-05-19T09:54:24.060Z,18.43
2023-05-19T09:56:33.187Z,18.63
2023-05-19T09:58:36.482Z,18.78
2023-05-19T10:00:41.373Z,18.56
2023-05-19T10:02:44.937Z,18.59
2023-05-19T10:04:49.359Z,18.47
2023-05-19T10:06:54.282Z,18.52
2023-05-19T10:08:57.463Z,18.64
2023-05-19T10:11:01.022Z,18.80
2023-05-19T10:13:05.031Z,19.06
2023-05-19T10:15:11.747Z,19.24
2023-05-19T10:17:16.536Z,19.19
2023-05-19T10:19:22.353Z,19.04
2023-05-19T10:21:25.378Z,19.37
2023-05-19T10:23:28.207Z,19.50
2023-05-19T10:25:33.835Z,19.71
2023-05-19T10:27:41.531Z,19.61
2023-05-19T10:29:50.328Z,19.50
2023-05-19T10:31:55.351Z,19.53
2023-05-19T10:34:11.666Z,19.52
2023-05-19T10:36:35.452Z,19.73
2023-05-19T10:38:44.034Z,19.88
2023-05-19T10:40:58.339Z,19.77
2023-05-19T10:43:16.852Z,19.84
2023-05-19T10:45:23.614Z,20.02
2023-05-19T10:47:26.871Z,19.82
2023-05-19T10:49:36.004Z,19.90
2023-05-19T10:51:38.864Z,19.94
2023-05-19T10:53:46.276Z,19.80
2023-05-19T10:55:56.036Z,19.61
2023-05-19T10:58:00.404Z,19.92
2023-05-19T11:00:11.322Z,20.13
2023-05-19T11:02:38.852Z,19.98
2023-05-19T11:04:51.849Z,19.98
2023-05-19T11:06:57.749Z,20.24
2023-05-19T11:09:01.907Z,20.11
2023-05-19T11:11:14.396Z,20.06
2023-05-19T11:13:23.009Z,19.82
2023-05-19T11:15:28.093Z,19.96
2023-05-19T11:17:31.797Z,20.07
2023-05-19T11:19:36.894Z,20.17
2023-05-19T11:21:50.362Z,20.38
2023-05-19T11:23:53.761Z,20.56
2023-05-19T11:25:56.649Z,20.57
2023-05-19T11:28:00.130Z,20.62
2023-05-19T11:30:11.765Z,20.45
2023-05-19T11:32:15.460Z,20.50
2023-05-19T11:34:19.695Z,20.48
2023-05-19T11:36:23.259Z,20.26
2023-05-19T11:38:30.101Z,20.16
2023-05-19T11:40:33.399Z,19.93
2023-05-19T11:42:38.054Z,19.86
2023-05-19T11:44:42.698Z,20.06
2023-05-19T11:46:46.433Z,20.13
2023-05-19T11:48:50.445Z,20.53
2023-05-19T11:50:53.464Z,20.54
2023-05-19T11:53:02.024Z,20.37
2023-05-19T11:55:08.572Z,20.12
2023-05-19T11:57:11.763Z,19.88
2023-05-19T11:59:15.188Z,19.74
2023-05-19T12:01:18.085Z,19.64
2023-05-19T12:03:29.548Z,19.72
2023-05-19T12:05:35.429Z,19.63
2023-05-19T12:07:43.084Z,19.54
2023-05-19T12:09:46.866Z,19.78
2023-05-19T12:11:52.600Z,19.65
2023-05-19T12:13:59.255Z,19.69
2023-05-19T12:16:02.412Z,19.56
2023-05-19T12:18:05.692Z,19.62
2023-05-19T12:20:10.656Z,19.73
2023-05-19T12:22:14.236Z,19.67
2023-05-19T12:24:17.112Z,19.76
2023-05-19T12:26:22.277Z,19.81
2023-05-19T12:28:26.540Z,19.80
2023-05-19T12:30:30.545Z,19.75
2023-05-19T12:32:35.145Z,19.81
2023-05-19T12:34:38.344Z,19.95
2023-05-19T12:36:42.399Z,20.14
2023-05-19T12:38:45.450Z,20.52
2023-05-19T12:40:49.347Z,20.46
2023-05-19T12:42:58.092Z,20.45
2023-05-19T12:45:05.122Z,20.25
2023-05-19T12:47:08.083Z,20.27
2023-05-19T12:49:11.006Z,20.16
2023-05-19T12:51:17.627Z,20.05
2023-05-19T12:53:21.081Z,19.91
2023-05-19T12:55:24.437Z,19.86
2023-05-19T12:57:27.548Z,20.00
2023-05-19T12:59:38.686Z,19.90
2023-05-19T13:01:43.304Z,19.94
2023-05-19T13:03:46.324Z,19.95
2023-05-19T13:05:52.074Z,19.97
2023-05-19T13:07:59.568Z,19.84
2023-05-19T13:10:02.480Z,19.75
2023-05-19T13:12:06.380Z,19.70
2023-05-19T13:14:09.280Z,19.59
2023-05-19T13:16:12.239Z,19.57
2023-05-19T13:18:16.527Z,19.63
2023-05-19T13:20:19.669Z,19.62
2023-05-19T13:22:22.465Z,19.49
2023-05-19T13:24:25.329Z,19.53
2023-05-19T13:26:28.175Z,19.56
2023-05-19T13:28:31.178Z,19.57
2023-05-19T13:30:35.095Z,19.44
2023-05-19T13:32:38.490Z,19.27
2023-05-19T13:34:42.908Z,19.50
2023-05-19T13:36:48.050Z,19.49
2023-05-19T13:38:51.460Z,19.38
2023-05-19T13:40:54.668Z,19.49
2023-05-19T13:42:57.499Z,19.63
2023-05-19T13:45:00.270Z,19.51
2023-05-19T13:47:03.319Z,19.45
2023-05-19T13:49:06.221Z,19.40
2023-05-19T13:51:10.418Z,19.21
2023-05-19T13:53:13.257Z,19.29
2023-05-19T13:55:16.234Z,19.36
2023-05-19T13:57:19.030Z,19.11
2023-05-19T13:59:22.428Z,19.12
2023-05-19T14:01:25.338Z,19.11
2023-05-19T14:03:28.391Z,19.24
2023-05-19T14:05:31.531Z,19.10
2023-05-19T14:07:37.004Z,19.11
2023-05-19T14:09:40.065Z,19.25
2023-05-19T14:11:43.404Z,19.19
2023-05-19T14:13:46.273Z,19.25
2023-05-19T14:15:49.192Z,19.22
2023-05-19T14:17:52.967Z,19.31
2023-05-19T14:19:56.096Z,19.35
2023-05-19T14:21:58.977Z,19.32
2023-05-19T14:24:03.254Z,19.31
2023-05-19T14:26:06.139Z,19.24
2023-05-19T14:28:10.909Z,19.22
2023-05-19T14:30:14.067Z,19.30
2023-05-19T14:32:16.962Z,19.36
2023-05-19T14:34:21.131Z,19.65
2023-05-19T14:36:24.026Z,19.58
2023-05-19T14:38:27.691Z,19.60
2023-05-19T14:40:33.282Z,19.71
2023-05-19T14:42:36.363Z,19.85
2023-05-19T14:44:41.583Z,19.84
2023-05-19T14:46:44.405Z,19.83
2023-05-19T14:48:47.275Z,19.95
2023-05-19T14:50:50.219Z,19.88
2023-05-19T14:52:53.054Z,20.08
2023-05-19T14:54:57.034Z,20.06
2023-05-19T14:57:01.570Z,19.98
2023-05-19T14:59:05.724Z,19.97
2023-05-19T15:01:08.664Z,19.91
2023-05-19T15:03:11.823Z,20.08
2023-05-19T15:05:14.779Z,20.08
2023-05-19T15:07:17.750Z,20.08
2023-05-19T15:09:20.823Z,20.11
2023-05-19T15:11:23.693Z,20.16
2023-05-19T15:13:27.875Z,20.10
2023-05-19T15:15:30.836Z,19.94
2023-05-19T15:17:33.735Z,20.32
2023-05-19T15:19:36.652Z,20.22
2023-05-19T15:21:39.775Z,20.21
2023-05-19T15:23:42.876Z,20.28
2023-05-19T15:25:46.043Z,20.18
2023-05-19T15:27:48.879Z,20.08
2023-05-19T15:29:53.082Z,20.11
2023-05-19T15:31:56.498Z,20.35
2023-05-19T15:33:59.312Z,20.38
2023-05-19T15:36:02.166Z,20.18
2023-05-19T15:38:06.287Z,20.06
2023-05-19T15:40:10.545Z,20.03
2023-05-19T15:42:13.398Z,19.89
2023-05-19T15:44:16.442Z,19.93
2023-05-19T15:46:20.736Z,19.90
2023-05-19T15:48:24.399Z,20.00
2023-05-19T15:50:27.382Z,19.92
2023-05-19T15:52:30.154Z,19.76
2023-05-19T15:54:33.008Z,19.72
2023-05-19T15:56:35.825Z,19.80
2023-05-19T15:58:38.647Z,19.75
2023-05-19T16:00:41.479Z,19.57
2023-05-19T16:02:45.804Z,19.43
2023-05-19T16:04:48.677Z,19.63
2023-05-19T16:06:51.590Z,19.51
2023-05-19T16:08:54.356Z,19.65
2023-05-19T16:10:57.269Z,19.63
2023-05-19T16:13:00.089Z,19.58
2023-05-19T16:15:02.980Z,19.53
2023-05-19T16:17:11.286Z,19.47
2023-05-19T16:19:15.548Z,19.53
2023-05-19T16:21:19.363Z,19.59
2023-05-19T16:23:22.187Z,19.45
2023-05-19T16:25:25.189Z,19.55
2023-05-19T16:27:28.239Z,19.49
2023-05-19T16:29:31.184Z,19.49
2023-05-19T16:31:34.032Z,19.40
2023-05-19T16:33:36.930Z,19.46
2023-05-19T16:35:41.230Z,19.53
2023-05-19T16:37:44.046Z,19.50
2023-05-19T16:39:48.311Z,19.47
2023-05-19T16:41:52.718Z,19.45
2023-05-19T16:43:55.559Z,19.26
2023-05-19T16:45:58.446Z,19.28
2023-05-19T16:48:01.428Z,19.34
2023-05-19T16:50:04.550Z,19.29
2023-05-19T16:52:09.069Z,19.38
2023-05-19T16:54:11.771Z,19.46
2023-05-19T16:56:14.653Z,19.41
2023-05-19T16:58:17.469Z,19.35
2023-05-19T17:00:20.932Z,19.52
2023-05-19T17:02:23.812Z,19.57
2023-05-19T17:04:28.678Z,19.39
2023-05-19T17:06:33.488Z,19.27
2023-05-19T17:08:37.666Z,19.30
2023-05-19T17:10:40.523Z,19.42
2023-05-19T17:12:43.361Z,19.41
2023-05-19T17:14:46.226Z,19.24
2023-05-19T17:16:49.312Z,19.24
2023-05-19T17:18:52.374Z,19.25
2023-05-19T17:20:55.288Z,19.28
2023-05-19T17:22:58.102Z,19.28
2023-05-19T17:25:02.250Z,19.35
2023-05-19T17:27:05.700Z,19.35
2023-05-19T17:29:08.559Z,19.28
2023-05-19T17:31:12.189Z,19.33
2023-05-19T17:33:15.494Z,19.43
2023-05-19T17:35:18.459Z,19.50
2023-05-19T17:37:25.649Z,19.39
2023-05-19T17:39:28.599Z,19.28
2023-05-19T17:41:32.908Z,19.27
2023-05-19T17:43:35.764Z,19.21
2023-05-19T17:45:38.695Z,19.32
2023-05-19T17:47:41.544Z,19.38
2023-05-19T17:49:44.404Z,19.35
2023-05-19T17:51:47.660Z,19.31
2023-05-19T17:53:51.220Z,19.34
2023-05-19T17:55:58.622Z,19.32
2023-05-19T17:58:03.279Z,19.36
2023-05-19T18:00:07.604Z,19.33
2023-05-19T18:02:11.875Z,19.30
2023-05-19T18:04:16.160Z,19.32
2023-05-19T18:06:20.298Z,19.41
2023-05-19T18:08:23.696Z,19.40
2023-05-19T18:10:28.310Z,19.39
2023-05-19T18:12:31.192Z,19.50
2023-05-19T18:14:35.416Z,19.31
2023-05-19T18:16:38.322Z,19.27
2023-05-19T18:18:43.583Z,19.28
2023-05-19T18:20:46.648Z,19.27
2023-05-19T18:22:49.565Z,19.30
2023-05-19T18:24:52.907Z,19.32
2023-05-19T18:26:55.809Z,19.23
2023-05-19T18:29:02.544Z,19.21
2023-05-19T18:31:07.973Z,19.14
2023-05-19T18:33:10.942Z,19.18
2023-05-19T18:35:14.106Z,19.18
2023-05-19T18:37:17.989Z,19.22
2023-05-19T18:39:21.088Z,19.14
2023-05-19T18:41:23.866Z,19.11
2023-05-19T18:43:26.714Z,19.12
2023-05-19T18:45:29.597Z,19.10
2023-05-19T18:47:33.839Z,19.11
2023-05-19T18:49:36.688Z,19.10
2023-05-19T18:51:39.499Z,19.06
2023-05-19T18:53:42.404Z,19.02
2023-05-19T18:55:45.268Z,19.10
2023-05-19T18:57:48.126Z,19.06
2023-05-19T18:59:50.907Z,19.06
2023-05-19T19:01:54.065Z,19.02
2023-05-19T19:03:58.326Z,19.03
2023-05-19T19:06:01.586Z,18.97
2023-05-19T19:08:05.546Z,18.89
2023-05-19T19:10:09.770Z,18.92
2023-05-19T19:12:12.642Z,18.88
2023-05-19T19:14:15.464Z,18.83
2023-05-19T19:16:18.349Z,18.95
2023-05-19T19:18:21.300Z,18.89
2023-05-19T19:20:25.507Z,18.97
2023-05-19T19:22:28.375Z,18.93
2023-05-19T19:24:32.129Z,18.89
2023-05-19T19:26:35.134Z,18.84
2023-05-19T19:28:37.963Z,18.85
2023-05-19T19:30:40.879Z,18.89
2023-05-19T19:32:43.715Z,18.86
2023-05-19T19:34:46.573Z,18.77
2023-05-19T19:36:50.741Z,18.78
2023-05-19T19:38:53.572Z,18.81
2023-05-19T19:40:56.443Z,18.82
2023-05-19T19:42:59.417Z,18.84
2023-05-19T19:45:02.433Z,18.74
2023-05-19T19:47:06.123Z,18.71
2023-05-19T19:49:09.048Z,18.84
2023-05-19T19:51:11.866Z,18.82
2023-05-19T19:53:16.100Z,18.64
2023-05-19T19:55:18.936Z,18.61
2023-05-19T19:57:21.832Z,18.64
2023-05-19T19:59:24.645Z,18.54
2023-05-19T20:01:28.144Z,18.55
2023-05-19T20:03:31.764Z,18.43
2023-05-19T20:05:34.714Z,18.42
2023-05-19T20:07:37.594Z,18.51
2023-05-19T20:09:41.818Z,18.45
2023-05-19T20:11:44.851Z,18.43
2023-05-19T20:13:47.710Z,18.39
2023-05-19T20:15:51.074Z,18.39
2023-05-19T20:17:54.076Z,18.47
2023-05-19T20:19:57.257Z,18.47
2023-05-19T20:22:00.116Z,18.43
2023-05-19T20:24:03.018Z,18.41
2023-05-19T20:26:12.494Z,18.33
2023-05-19T20:28:16.248Z,18.27
2023-05-19T20:30:19.275Z,18.13
2023-05-19T20:32:22.115Z,18.11
2023-05-19T20:34:25.079Z,18.23
2023-05-19T20:36:28.029Z,18.21
2023-05-19T20:38:31.025Z,18.18
2023-05-19T20:40:33.947Z,18.19
2023-05-19T20:42:41.134Z,18.25
2023-05-19T20:44:44.105Z,18.08
2023-05-19T20:46:46.970Z,17.99
2023-05-19T20:48:49.874Z,18.06
2023-05-19T20:50:53.321Z,18.01
2023-05-19T20:52:56.281Z,17.97
2023-05-19T20:54:59.132Z,18.05
2023-05-19T20:57:06.253Z,18.04
2023-05-19T20:59:10.384Z,17.98
2023-05-19T21:01:13.383Z,17.96
2023-05-19T21:03:16.621Z,17.94
2023-05-19T21:05:19.816Z,17.97
2023-05-19T21:07:22.697Z,17.76
2023-05-19T21:09:25.750Z,17.87
2023-05-19T21:11:28.579Z,17.78
2023-05-19T21:13:31.446Z,17.72
2023-05-19T21:15:35.719Z,17.72
2023-05-19T21:17:38.605Z,17.65
2023-05-19T21:19:41.496Z,17.67
2023-05-19T21:21:44.875Z,17.68
2023-05-19T21:23:47.778Z,17.61
2023-05-19T21:25:51.221Z,17.65
2023-05-19T21:27:55.404Z,17.59
2023-05-19T21:29:58.300Z,17.58
2023-05-19T21:32:02.471Z,17.65
2023-05-19T21:34:07.204Z,17.66
2023-05-19T21:36:10.061Z,17.62
2023-05-19T21:38:23.600Z,17.58
2023-05-19T21:40:27.167Z,17.50
2023-05-19T21:42:30.042Z,17.56
2023-05-19T21:44:32.885Z,17.50
2023-05-19T21:46:35.785Z,17.54
2023-05-19T21:48:40.035Z,17.55
2023-05-19T21:50:42.900Z,17.41
2023-05-19T21:52:45.918Z,17.34
2023-05-19T21:54:48.734Z,17.44
2023-05-19T21:56:51.562Z,17.42
2023-05-19T21:58:54.364Z,17.38
2023-05-19T22:00:57.277Z,17.38
2023-05-19T22:03:00.196Z,17.36
2023-05-19T22:05:04.738Z,17.48
2023-05-19T22:07:07.840Z,17.27
2023-05-19T22:09:12.937Z,17.26
2023-05-19T22:11:17.907Z,17.29
2023-05-19T22:13:21.306Z,17.30
2023-05-19T22:15:24.555Z,17.22
2023-05-19T22:17:27.486Z,17.21
2023-05-19T22:19:30.443Z,17.24
2023-05-19T22:21:34.914Z,17.14
2023-05-19T22:23:37.816Z,17.14
2023-05-19T22:25:40.755Z,17.25
2023-05-19T22:27:43.698Z,17.20
2023-05-19T22:29:46.579Z,17.03
2023-05-19T22:31:49.476Z,17.02
2023-05-19T22:33:52.355Z,17.00
2023-05-19T22:35:55.299Z,17.00
2023-05-19T22:37:59.483Z,17.00
2023-05-19T22:40:02.265Z,17.10
2023-05-19T22:42:05.480Z,17.14
2023-05-19T22:44:11.410Z,17.03
2023-05-19T22:46:14.297Z,16.98
2023-05-19T22:48:17.224Z,17.09
2023-05-19T22:50:20.286Z,17.06
2023-05-19T22:52:23.284Z,16.97
2023-05-19T22:54:27.477Z,16.98
2023-05-19T22:56:30.307Z,16.98
2023-05-19T22:58:33.128Z,17.07
2023-05-19T23:00:36.048Z,17.12
2023-05-19T23:02:38.893Z,16.99
2023-05-19T23:04:41.701Z,17.05
2023-05-19T23:06:44.599Z,17.10
2023-05-19T23:08:47.430Z,17.02
2023-05-19T23:10:51.604Z,16.95
2023-05-19T23:12:54.416Z,17.03
2023-05-19T23:14:57.256Z,16.98
2023-05-19T23:17:00.249Z,16.95
2023-05-19T23:19:03.218Z,16.96
2023-05-19T23:21:06.057Z,17.04
2023-05-19T23:23:08.872Z,17.14
2023-05-19T23:25:16.555Z,17.04
2023-05-19T23:27:20.800Z,16.95
2023-05-19T23:29:23.649Z,16.96
2023-05-19T23:31:26.639Z,16.92
2023-05-19T23:33:29.490Z,16.86
2023-05-19T23:35:32.637Z,16.82
2023-05-19T23:39:50.138Z,16.80
2023-05-19T23:41:52.991Z,16.72
2023-05-19T23:43:57.244Z,16.65
2023-05-19T23:46:00.516Z,16.73
2023-05-19T23:48:03.386Z,16.70
2023-05-19T23:50:06.650Z,16.70
2023-05-19T23:52:09.520Z,16.70
2023-05-19T23:54:12.332Z,16.71
2023-05-19T23:56:15.166Z,16.61
2023-05-19T23:58:18.052Z,16.64
